Flight Track Log - Related Links

Times and Time Zones

All times are in EDT time to prevent confusion due to time zone crossing. See the ASQ1349 flight status page for this flight to view local times or setup timezone preferences in your user account.

Time Position Orientation Groundspeed Altitude Reporting Facility
EDT Latitude Longitude Course Direction KTS MPH feet Rate Location/Type
Thu 02:21:38 PM 33.6353 -84.3756 91° East 455 524 3,200  Level Atlanta Center
Thu 02:22:35 PM 33.6333 -84.2833 91° East 259 298 5,700 2,667 Climbing Atlanta TRACON
Thu 02:23:35 PM 33.6333 -84.2000 90° East 272 313 8,400 2,439 Climbing Atlanta TRACON
Thu 02:24:38 PM 33.6356 -84.1136 88° East 290 334 10,700 2,000 Climbing Atlanta Center
Thu 02:25:38 PM 33.6858 -84.0339 53° Northeast 276 318 12,500 1,500 Climbing Atlanta Center
Thu 02:26:38 PM 33.7503 -83.9514 47° Northeast 320 368 13,700 1,600 Climbing Atlanta Center
Thu 02:28:38 PM 33.8878 -83.7686 48° Northeast 344 396 17,300 1,667 Climbing Atlanta Center
Thu 02:29:38 PM 33.9544 -83.6756 49° Northeast 344 396 18,700 1,500 Climbing Atlanta Center
Thu 02:30:38 PM 34.0125 -83.5803 54° Northeast 353 406 20,300 1,450 Climbing Atlanta Center
Thu 02:31:38 PM 34.0769 -83.4794 52° Northeast 363 418 21,600 1,150 Climbing Atlanta Center
Thu 02:32:38 PM 34.1411 -83.3761 53° Northeast 370 426 22,600 1,050 Climbing Atlanta Center
Thu 02:33:38 PM 34.2072 -83.2728 52° Northeast 387 445 23,700 1,050 Climbing Atlanta Center
Thu 02:34:38 PM 34.2733 -83.1639 54° Northeast 387 445 24,700 1,050 Climbing Atlanta Center
Thu 02:35:38 PM 34.3392 -83.0553 54° Northeast 393 452 25,800 1,100 Climbing Atlanta Center
Thu 02:36:38 PM 34.4072 -82.9461 53° Northeast 393 452 26,900 1,050 Climbing Atlanta Center
Thu 02:37:38 PM 34.4750 -82.8394 52° Northeast 398 458 27,900 1,050 Climbing Atlanta Center
Thu 02:38:38 PM 34.5428 -82.7250 54° Northeast 404 465 29,000 950 Climbing Atlanta Center
Thu 02:39:38 PM 34.6042 -82.6256 53° Northeast 409 471 29,800 1,050 Climbing Atlanta Center
Thu 02:40:38 PM 34.6761 -82.5183 51° Northeast 409 471 31,100 1,300 Climbing Atlanta Center
Thu 02:41:38 PM 34.7456 -82.4058 53° Northeast 409 471 32,400 950 Climbing Atlanta Center
Thu 02:42:38 PM 34.8128 -82.2906 55° Northeast 414 476 33,000 300 Climbing Atlanta Center
Thu 02:43:38 PM 34.8881 -82.1675 53° Northeast 429 494 33,000  Level Atlanta Center
Thu 02:44:38 PM 34.9614 -82.0492 53° Northeast 439 505 33,000  Level Atlanta Center
Thu 02:45:38 PM 35.0325 -81.9283 54° Northeast 439 505 33,000 200 Level Atlanta Center
Thu 02:46:38 PM 35.1011 -81.8022 56° Northeast 445 512 33,400 800 Climbing Atlanta Center
Thu 02:47:38 PM 35.1636 -81.6811 58° Northeast 435 501 34,600 800 Climbing Atlanta Center
Thu 02:48:38 PM 35.2319 -81.5544 57° Northeast 435 501 35,000 200 Climbing Atlanta Center
Thu 02:49:38 PM 35.3022 -81.4200 57° Northeast 430 495 35,000  Level Atlanta Center
Thu 02:50:38 PM 35.3642 -81.2958 59° Northeast 430 495 35,000  Level Atlanta Center
Thu 02:51:38 PM 35.4281 -81.1689 58° Northeast 435 501 35,000  Level Atlanta Center
Thu 02:52:38 PM 35.4939 -81.0442 57° Northeast 435 501 35,000  Level Atlanta Center
Thu 02:53:38 PM 35.5539 -80.9322 57° Northeast 435 501 35,000  Level Atlanta Center
Thu 02:54:38 PM 35.6233 -80.7992 57° Northeast 429 494 35,000  Level Atlanta Center
Thu 02:55:38 PM 35.6867 -80.6739 58° Northeast 423 487 35,000  Level Atlanta Center
Thu 02:56:38 PM 35.7481 -80.5564 57° Northeast 413 475 35,000  Level Atlanta Center
Thu 02:57:38 PM 35.8133 -80.4281 58° Northeast 424 488 35,000  Level Atlanta Center
Thu 02:58:38 PM 35.8786 -80.3072 56° Northeast 424 488 35,000  Level Atlanta Center
Thu 02:59:38 PM 35.9372 -80.1867 59° Northeast 415 478 35,000  Level Atlanta Center
Thu 03:01:37 PM 36.0597 -79.9600 56° Northeast 431 496 35,000  Level Washington Center
Thu 03:02:35 PM 36.1267 -79.8403 55° Northeast 426 490 35,000  Level Washington Center
Thu 03:03:35 PM 36.2022 -79.7028 56° Northeast 426 490 35,000  Level Washington Center
Thu 03:04:35 PM 36.2711 -79.5803 55° Northeast 433 498 35,000  Level Washington Center
Thu 03:05:36 PM 36.3375 -79.4622 55° Northeast 428 493 35,000  Level Washington Center
Thu 03:06:36 PM 36.4042 -79.3367 57° Northeast 428 493 35,000  Level Washington Center
Thu 03:07:37 PM 36.4747 -79.2161 54° Northeast 433 498 35,000  Level Washington Center
Thu 03:08:35 PM 36.5383 -79.1078 54° Northeast 433 498 35,000  Level Washington Center
Thu 03:09:36 PM 36.6067 -78.9842 55° Northeast 433 498 35,000  Level Washington Center
Thu 03:10:36 PM 36.6750 -78.8525 57° Northeast 438 504 35,000  Level Washington Center
Thu 03:11:37 PM 36.7494 -78.7181 55° Northeast 438 504 35,000  Level Washington Center
Thu 03:12:37 PM 36.8175 -78.5911 56° Northeast 438 504 35,000  Level Washington Center
Thu 03:13:35 PM 36.8719 -78.4947 55° Northeast 433 498 35,000  Level Washington Center
Thu 03:14:37 PM 36.9506 -78.3494 56° Northeast 433 498 35,000  Level Washington Center
Thu 03:15:38 PM 37.0181 -78.2294 55° Northeast 433 498 35,000  Level Washington Center
Thu 03:16:35 PM 37.1158 -78.1444 35° Northeast 416 479 35,000  Level Washington Center
Thu 03:17:36 PM 37.2194 -78.0669 31° Northeast 421 484 35,000  Level Washington Center
Thu 03:18:35 PM 37.3214 -77.9892 31° Northeast 426 490 35,000  Level Washington Center
Thu 03:19:36 PM 37.4250 -77.9114 31° Northeast 426 490 35,000  Level Washington Center
Thu 03:20:36 PM 37.5247 -77.8308 33° Northeast 432 497 35,000  Level Washington Center
Thu 03:21:36 PM 37.6242 -77.7419 35° Northeast 437 503 35,000  Level Washington Center
Thu 03:22:37 PM 37.7239 -77.6528 35° Northeast 437 503 35,000  Level Washington Center
Thu 03:23:36 PM 37.8233 -77.5633 35° Northeast 437 503 35,000  Level Washington Center
Thu 03:24:37 PM 37.9208 -77.4714 37° Northeast 432 497 35,000  Level Washington Center
Thu 03:25:35 PM 38.0181 -77.3814 36° Northeast 432 497 35,000  Level Washington Center
Thu 03:26:36 PM 38.1236 -77.2864 35° Northeast 427 491 35,000  Level Washington Center
Thu 03:27:37 PM 38.2231 -77.1933 36° Northeast 433 498 35,000  Level Washington Center
Thu 03:28:37 PM 38.3200 -77.1028 36° Northeast 433 498 35,000  Level Washington Center
Thu 03:29:36 PM 38.4192 -77.0119 36° Northeast 433 498 35,000  Level Washington Center
Thu 03:30:36 PM 38.5183 -76.9211 36° Northeast 433 498 35,000  Level Washington Center
Thu 03:31:36 PM 38.6153 -76.8272 37° Northeast 433 498 35,000  Level Washington Center
Thu 03:32:35 PM 38.7142 -76.7303 37° Northeast 433 498 35,000  Level Washington Center
Thu 03:33:36 PM 38.8067 -76.6278 41° Northeast 433 498 35,000 -298 Level Washington Center
Thu 03:34:36 PM 38.8994 -76.5253 41° Northeast 433 498 34,400 -1,000 Descending Washington Center
Thu 03:35:36 PM 38.9875 -76.4194 43° Northeast 433 498 33,000 -1,736 Descending Washington Center
Thu 03:36:37 PM 39.0758 -76.3161 42° Northeast 433 498 30,900 -2,579 Descending Washington Center
Thu 03:37:37 PM 39.1703 -76.2047 42° Northeast 433 498 27,800 -2,051 Descending Washington Center
Thu 03:38:34 PM 39.2542 -76.1061 42° Northeast 443 510 26,900 -864 Descending Washington Center
Thu 03:39:35 PM 39.3503 -75.9969 41° Northeast 443 510 26,100 -1,024 Descending Washington Center
Thu 03:40:37 PM 39.4444 -75.8872 42° Northeast 448 516 24,800 -1,350 Descending Washington Center
Thu 03:41:35 PM 39.5383 -75.7744 43° Northeast 448 516 23,400 -1,613 Descending Washington Center
Thu 03:42:36 PM 39.6322 -75.6669 41° Northeast 448 516 21,600 -1,587 Descending Washington Center
Thu 03:43:36 PM 39.7219 -75.5592 43° Northeast 443 510 20,200 -1,636 Descending Washington Center
Thu 03:44:37 PM 39.8053 -75.4564 43° Northeast 433 498 18,300 -1,916 Descending Washington Center
Thu 03:45:35 PM 39.8883 -75.3561 43° Northeast 416 479 16,400 -2,390 Descending Washington Center
Thu 03:46:35 PM 39.9694 -75.2586 43° Northeast 402 463 13,600 -2,479 Descending Washington Center
Thu 03:47:36 PM 40.0461 -75.1661 43° Northeast 383 441 11,400 -1,279 Descending Washington Center
Thu 03:48:37 PM 40.1250 -75.0922 36° Northeast 362 417 11,000 -447 Descending Washington Center
Thu 03:49:10 PM 40.1667 -75.0333 47° Northeast 326 375 10,700 -1,742 Descending New York TRACON
Thu 03:50:10 PM 40.2167 -74.9667 46° Northeast 290 334 8,300 -1,368 Descending New York TRACON
Thu 03:51:04 PM 40.2667 -74.8833 52° Northeast 272 313 8,100 -211 Descending New York TRACON
Thu 03:52:04 PM 40.3167 -74.8167 45° Northeast 280 322 7,900 -650 Descending New York TRACON
Thu 03:53:04 PM 40.3667 -74.7333 52° Northeast 277 319 6,800 -950 Descending New York TRACON
Thu 03:54:04 PM 40.4167 -74.6667 45° Northeast 275 316 6,000 -400 Descending New York TRACON
Thu 03:55:04 PM 40.4500 -74.5667 66° East 283 326 6,000 50 Level New York TRACON
Thu 03:56:04 PM 40.5167 -74.5333 21° North 274 315 6,100 50 Climbing New York TRACON
Thu 03:57:04 PM 40.5833 -74.5500 349° North 267 307 6,100 -50 Level New York TRACON
Thu 03:58:04 PM 40.6667 -74.5667 351° North 272 313 6,000 -100 Descending New York TRACON
Thu 03:59:04 PM 40.7333 -74.5833 349° North 272 313 5,900 -450 Descending New York TRACON
Thu 04:00:04 PM 40.8000 -74.5500 21° North 264 304 5,100 -400 Descending New York TRACON
Thu 04:01:04 PM 40.8667 -74.5000 30° Northeast 274 315 5,100 -50 Level New York TRACON
Thu 04:02:04 PM 40.9000 -74.4167 62° Northeast 277 319 5,000  Descending New York TRACON
Thu 04:03:04 PM 40.9500 -74.3333 52° Northeast 281 323 5,100 -450 Climbing New York TRACON
Thu 04:04:04 PM 40.9500 -74.2333 90° East 261 300 4,100 -550 Descending New York TRACON
Thu 04:05:04 PM 40.9167 -74.1500 118° Southeast 240 276 4,000 -300 Descending New York TRACON
Thu 04:06:04 PM 40.8833 -74.0833 123° Southeast 224 258 3,500 -550 Descending New York TRACON
Thu 04:07:04 PM 40.8333 -74.0833 180° South 201 231 2,900 -750 Descending New York TRACON
Thu 04:08:04 PM 40.7833 -74.1000 194° South 191 220 2,000 -800 Descending New York TRACON
Thu 04:09:04 PM 40.7500 -74.1333 217° Southwest 144 166 1,300 -850 Descending New York TRACON
Thu 04:10:04 PM 40.7000 -74.1500 194° South 137 158 300 -1,000 Descending New York TRACON
Thu 04:12:00 PM 40.6833 -74.1667 183° South  Level FlightAware Approximate
Thu 04:19:00 PM 40.6925 -74.1687 183° South  Level Estimated

Login

Don't have an account? Register now (free) for customized features, flight alerts, and more!